sensor_id;sensor_type;location;lat;lon;timestamp;P1;durP1;ratioP1;P2;durP2;ratioP2
30888;SDS011;51092;50.874;7.024;2023-02-01T00:00:50;25.02;;;9.60;;
30888;SDS011;51092;50.874;7.024;2023-02-01T00:01:51;24.45;;;11.32;;
30888;SDS011;51092;50.874;7.024;2023-02-01T00:02:54;23.60;;;10.25;;
30888;SDS011;51092;50.874;7.024;2023-02-01T00:03:55;27.63;;;11.52;;
30888;SDS011;51092;50.874;7.024;2023-02-01T00:04:58;22.65;;;10.30;;
30888;SDS011;51092;50.874;7.024;2023-02-01T00:05:59;22.15;;;10.73;;
30888;SDS011;51092;50.874;7.024;2023-02-01T00:07:02;25.05;;;11.05;;
30888;SDS011;51092;50.874;7.024;2023-02-01T00:08:03;25.33;;;10.30;;
30888;SDS011;51092;50.874;7.024;2023-02-01T00:09:06;31.58;;;11.05;;
30888;SDS011;51092;50.874;7.024;2023-02-01T00:10:12;22.42;;;10.25;;
30888;SDS011;51092;50.874;7.024;2023-02-01T00:11:14;28.75;;;11.07;;
30888;SDS011;51092;50.874;7.024;2023-02-01T00:12:15;29.45;;;11.00;;
30888;SDS011;51092;50.874;7.024;2023-02-01T00:13:18;24.95;;;10.05;;
30888;SDS011;51092;50.874;7.024;2023-02-01T00:14:19;24.92;;;10.80;;
30888;SDS011;51092;50.874;7.024;2023-02-01T00:15:22;20.65;;;11.93;;
30888;SDS011;51092;50.874;7.024;2023-02-01T00:16:24;29.15;;;11.68;;
30888;SDS011;51092;50.874;7.024;2023-02-01T00:17:28;25.17;;;12.13;;
30888;SDS011;51092;50.874;7.024;2023-02-01T00:18:29;28.58;;;11.85;;
30888;SDS011;51092;50.874;7.024;2023-02-01T00:19:32;22.98;;;11.20;;
30888;SDS011;51092;50.874;7.024;2023-02-01T00:20:34;27.02;;;13.25;;
30888;SDS011;51092;50.874;7.024;2023-02-01T00:21:37;25.92;;;11.98;;
30888;SDS011;51092;50.874;7.024;2023-02-01T00:22:39;32.13;;;13.32;;
30888;SDS011;51092;50.874;7.024;2023-02-01T00:23:41;24.63;;;12.65;;
30888;SDS011;51092;50.874;7.024;2023-02-01T00:24:43;32.40;;;13.45;;
30888;SDS011;51092;50.874;7.024;2023-02-01T00:25:47;31.08;;;13.50;;
30888;SDS011;51092;50.874;7.024;2023-02-01T00:26:48;29.30;;;14.20;;
30888;SDS011;51092;50.874;7.024;2023-02-01T00:27:51;29.25;;;15.20;;
30888;SDS011;51092;50.874;7.024;2023-02-01T00:28:52;32.28;;;15.10;;
30888;SDS011;51092;50.874;7.024;2023-02-01T00:29:55;29.00;;;13.88;;
30888;SDS011;51092;50.874;7.024;2023-02-01T00:30:56;36.83;;;16.58;;
30888;SDS011;51092;50.874;7.024;2023-02-01T00:31:59;26.00;;;13.88;;
30888;SDS011;51092;50.874;7.024;2023-02-01T00:33:01;29.02;;;15.13;;
30888;SDS011;51092;50.874;7.024;2023-02-01T00:34:03;29.48;;;15.07;;
30888;SDS011;51092;50.874;7.024;2023-02-01T00:35:05;31.05;;;15.43;;
30888;SDS011;51092;50.874;7.024;2023-02-01T00:36:09;31.63;;;14.85;;
30888;SDS011;51092;50.874;7.024;2023-02-01T00:37:11;38.58;;;12.63;;
30888;SDS011;51092;50.874;7.024;2023-02-01T00:38:13;28.67;;;12.73;;
30888;SDS011;51092;50.874;7.024;2023-02-01T00:39:15;24.25;;;12.23;;
30888;SDS011;51092;50.874;7.024;2023-02-01T00:40:17;29.23;;;13.32;;
30888;SDS011;51092;50.874;7.024;2023-02-01T00:41:21;31.38;;;12.88;;
30888;SDS011;51092;50.874;7.024;2023-02-01T00:42:23;35.45;;;13.52;;
30888;SDS011;51092;50.874;7.024;2023-02-01T00:43:25;31.60;;;13.82;;
30888;SDS011;51092;50.874;7.024;2023-02-01T00:44:27;27.00;;;11.13;;
30888;SDS011;51092;50.874;7.024;2023-02-01T00:45:29;26.90;;;11.48;;
30888;SDS011;51092;50.874;7.024;2023-02-01T00:46:31;33.60;;;11.75;;
30888;SDS011;51092;50.874;7.024;2023-02-01T00:47:33;17.90;;;10.40;;
30888;SDS011;51092;50.874;7.024;2023-02-01T00:48:35;29.42;;;10.38;;
30888;SDS011;51092;50.874;7.024;2023-02-01T00:49:37;23.75;;;9.65;;
30888;SDS011;51092;50.874;7.024;2023-02-01T00:50:40;31.70;;;9.10;;
30888;SDS011;51092;50.874;7.024;2023-02-01T00:51:42;19.05;;;8.63;;
30888;SDS011;51092;50.874;7.024;2023-02-01T00:52:44;27.48;;;10.13;;
30888;SDS011;51092;50.874;7.024;2023-02-01T00:53:46;21.60;;;8.75;;
30888;SDS011;51092;50.874;7.024;2023-02-01T00:54:49;22.05;;;9.68;;
30888;SDS011;51092;50.874;7.024;2023-02-01T00:55:50;23.92;;;8.68;;
30888;SDS011;51092;50.874;7.024;2023-02-01T00:56:54;23.73;;;8.93;;
30888;SDS011;51092;50.874;7.024;2023-02-01T00:57:55;25.02;;;9.48;;
30888;SDS011;51092;50.874;7.024;2023-02-01T00:58:58;26.08;;;8.88;;
30888;SDS011;51092;50.874;7.024;2023-02-01T00:59:59;32.30;;;8.68;;
30888;SDS011;51092;50.874;7.024;2023-02-01T01:01:02;24.27;;;8.63;;
30888;SDS011;51092;50.874;7.024;2023-02-01T01:02:05;21.45;;;7.50;;
30888;SDS011;51092;50.874;7.024;2023-02-01T01:03:08;26.15;;;8.15;;
30888;SDS011;51092;50.874;7.024;2023-02-01T01:04:18;16.02;;;7.30;;
30888;SDS011;51092;50.874;7.024;2023-02-01T01:05:20;20.52;;;7.30;;
30888;SDS011;51092;50.874;7.024;2023-02-01T01:06:23;26.77;;;7.75;;
30888;SDS011;51092;50.874;7.024;2023-02-01T01:07:28;20.33;;;6.45;;
30888;SDS011;51092;50.874;7.024;2023-02-01T01:08:30;24.10;;;7.38;;
30888;SDS011;51092;50.874;7.024;2023-02-01T01:09:32;20.10;;;7.30;;
30888;SDS011;51092;50.874;7.024;2023-02-01T01:10:34;26.17;;;7.65;;
30888;SDS011;51092;50.874;7.024;2023-02-01T01:11:37;16.80;;;6.30;;
30888;SDS011;51092;50.874;7.024;2023-02-01T01:12:40;19.90;;;5.65;;
30888;SDS011;51092;50.874;7.024;2023-02-01T01:13:43;20.17;;;6.28;;
30888;SDS011;51092;50.874;7.024;2023-02-01T01:14:47;31.20;;;7.45;;
30888;SDS011;51092;50.874;7.024;2023-02-01T01:15:49;19.90;;;6.25;;
30888;SDS011;51092;50.874;7.024;2023-02-01T01:16:51;17.38;;;6.03;;
30888;SDS011;51092;50.874;7.024;2023-02-01T01:17:53;22.02;;;6.00;;
30888;SDS011;51092;50.874;7.024;2023-02-01T01:18:55;19.40;;;5.28;;
30888;SDS011;51092;50.874;7.024;2023-02-01T01:19:58;24.10;;;5.72;;
30888;SDS011;51092;50.874;7.024;2023-02-01T01:20:59;21.23;;;6.47;;
30888;SDS011;51092;50.874;7.024;2023-02-01T01:22:02;20.83;;;6.28;;
30888;SDS011;51092;50.874;7.024;2023-02-01T01:23:04;17.88;;;6.20;;
30888;SDS011;51092;50.874;7.024;2023-02-01T01:24:07;20.42;;;6.18;;
30888;SDS011;51092;50.874;7.024;2023-02-01T01:25:09;20.05;;;6.25;;
30888;SDS011;51092;50.874;7.024;2023-02-01T01:26:12;17.13;;;4.97;;
30888;SDS011;51092;50.874;7.024;2023-02-01T01:27:16;24.02;;;6.00;;
30888;SDS011;51092;50.874;7.024;2023-02-01T01:28:25;15.77;;;5.55;;
30888;SDS011;51092;50.874;7.024;2023-02-01T01:29:27;24.08;;;5.80;;
30888;SDS011;51092;50.874;7.024;2023-02-01T01:30:29;17.85;;;5.10;;
30888;SDS011;51092;50.874;7.024;2023-02-01T01:31:31;17.65;;;5.25;;
30888;SDS011;51092;50.874;7.024;2023-02-01T01:32:33;17.80;;;5.43;;
30888;SDS011;51092;50.874;7.024;2023-02-01T01:33:35;22.65;;;5.43;;
30888;SDS011;51092;50.874;7.024;2023-02-01T01:34:37;31.58;;;7.50;;
30888;SDS011;51092;50.874;7.024;2023-02-01T01:35:38;27.67;;;5.32;;
30888;SDS011;51092;50.874;7.024;2023-02-01T01:36:40;25.70;;;6.90;;
30888;SDS011;51092;50.874;7.024;2023-02-01T01:37:45;21.50;;;5.88;;
30888;SDS011;51092;50.874;7.024;2023-02-01T01:38:46;18.40;;;6.38;;
30888;SDS011;51092;50.874;7.024;2023-02-01T01:39:49;19.95;;;5.47;;
30888;SDS011;51092;50.874;7.024;2023-02-01T01:40:50;21.90;;;6.18;;
30888;SDS011;51092;50.874;7.024;2023-02-01T01:41:53;23.15;;;5.28;;
30888;SDS011;51092;50.874;7.024;2023-02-01T01:42:54;18.90;;;4.82;;
30888;SDS011;51092;50.874;7.024;2023-02-01T01:43:59;23.23;;;5.30;;
30888;SDS011;51092;50.874;7.024;2023-02-01T01:45:03;22.75;;;4.80;;
30888;SDS011;51092;50.874;7.024;2023-02-01T01:46:07;18.02;;;4.93;;
30888;SDS011;51092;50.874;7.024;2023-02-01T01:47:10;21.98;;;5.65;;
30888;SDS011;51092;50.874;7.024;2023-02-01T01:48:13;21.05;;;5.97;;
30888;SDS011;51092;50.874;7.024;2023-02-01T01:49:19;22.80;;;5.07;;
30888;SDS011;51092;50.874;7.024;2023-02-01T01:50:23;26.10;;;6.88;;
30888;SDS011;51092;50.874;7.024;2023-02-01T01:51:29;13.80;;;4.40;;
30888;SDS011;51092;50.874;7.024;2023-02-01T01:52:33;22.35;;;4.65;;
30888;SDS011;51092;50.874;7.024;2023-02-01T01:53:37;19.23;;;4.22;;
30888;SDS011;51092;50.874;7.024;2023-02-01T01:54:45;23.70;;;5.05;;
30888;SDS011;51092;50.874;7.024;2023-02-01T01:55:50;25.00;;;4.00;;
30888;SDS011;51092;50.874;7.024;2023-02-01T01:56:55;19.08;;;4.45;;
30888;SDS011;51092;50.874;7.024;2023-02-01T01:58:02;23.00;;;4.25;;
30888;SDS011;51092;50.874;7.024;2023-02-01T01:59:07;20.73;;;5.18;;
30888;SDS011;51092;50.874;7.024;2023-02-01T02:00:11;19.00;;;4.85;;
30888;SDS011;51092;50.874;7.024;2023-02-01T02:01:13;18.80;;;4.07;;
30888;SDS011;51092;50.874;7.024;2023-02-01T02:02:19;20.50;;;4.60;;
30888;SDS011;51092;50.874;7.024;2023-02-01T02:03:21;20.02;;;4.93;;
30888;SDS011;51092;50.874;7.024;2023-02-01T02:04:27;20.95;;;4.35;;
30888;SDS011;51092;50.874;7.024;2023-02-01T02:05:29;16.92;;;4.55;;
30888;SDS011;51092;50.874;7.024;2023-02-01T02:06:35;15.02;;;4.45;;
30888;SDS011;51092;50.874;7.024;2023-02-01T02:07:43;24.13;;;4.90;;
30888;SDS011;51092;50.874;7.024;2023-02-01T02:08:47;21.55;;;5.13;;
30888;SDS011;51092;50.874;7.024;2023-02-01T02:09:50;19.70;;;5.05;;
30888;SDS011;51092;50.874;7.024;2023-02-01T02:10:52;20.77;;;5.20;;
30888;SDS011;51092;50.874;7.024;2023-02-01T02:12:01;32.38;;;6.10;;
30888;SDS011;51092;50.874;7.024;2023-02-01T02:13:03;21.08;;;5.20;;
30888;SDS011;51092;50.874;7.024;2023-02-01T02:14:05;16.05;;;5.25;;
30888;SDS011;51092;50.874;7.024;2023-02-01T02:15:16;18.20;;;5.70;;
30888;SDS011;51092;50.874;7.024;2023-02-01T02:16:37;19.75;;;7.00;;
30888;SDS011;51092;50.874;7.024;2023-02-01T02:17:55;21.95;;;5.55;;
30888;SDS011;51092;50.874;7.024;2023-02-01T02:19:07;26.13;;;5.95;;
30888;SDS011;51092;50.874;7.024;2023-02-01T02:20:35;18.45;;;5.55;;
30888;SDS011;51092;50.874;7.024;2023-02-01T02:21:52;25.55;;;7.18;;
30888;SDS011;51092;50.874;7.024;2023-02-01T02:23:18;20.95;;;5.75;;
30888;SDS011;51092;50.874;7.024;2023-02-01T02:24:39;20.65;;;7.22;;
30888;SDS011;51092;50.874;7.024;2023-02-01T02:27:26;27.13;;;9.43;;
30888;SDS011;51092;50.874;7.024;2023-02-01T02:30:35;31.17;;;10.63;;
30888;SDS011;51092;50.874;7.024;2023-02-01T02:31:59;28.40;;;9.23;;
30888;SDS011;51092;50.874;7.024;2023-02-01T02:33:34;33.20;;;9.65;;
30888;SDS011;51092;50.874;7.024;2023-02-01T02:34:48;28.58;;;9.05;;
30888;SDS011;51092;50.874;7.024;2023-02-01T02:35:57;25.63;;;8.98;;
30888;SDS011;51092;50.874;7.024;2023-02-01T02:37:08;27.00;;;8.90;;
30888;SDS011;51092;50.874;7.024;2023-02-01T02:38:23;26.88;;;9.68;;
30888;SDS011;51092;50.874;7.024;2023-02-01T02:39:34;27.52;;;8.68;;
30888;SDS011;51092;50.874;7.024;2023-02-01T02:40:46;24.13;;;7.78;;
30888;SDS011;51092;50.874;7.024;2023-02-01T02:43:20;23.48;;;8.35;;
30888;SDS011;51092;50.874;7.024;2023-02-01T02:44:45;23.75;;;9.50;;
30888;SDS011;51092;50.874;7.024;2023-02-01T02:46:11;25.92;;;8.93;;
30888;SDS011;51092;50.874;7.024;2023-02-01T02:47:42;21.08;;;7.18;;
30888;SDS011;51092;50.874;7.024;2023-02-01T02:48:53;25.70;;;8.07;;
30888;SDS011;51092;50.874;7.024;2023-02-01T02:50:03;25.45;;;8.23;;
30888;SDS011;51092;50.874;7.024;2023-02-01T02:51:40;31.48;;;9.00;;
30888;SDS011;51092;50.874;7.024;2023-02-01T02:53:04;25.33;;;8.27;;
30888;SDS011;51092;50.874;7.024;2023-02-01T02:54:29;32.08;;;8.18;;
30888;SDS011;51092;50.874;7.024;2023-02-01T02:55:52;26.60;;;7.20;;
30888;SDS011;51092;50.874;7.024;2023-02-01T02:57:13;27.90;;;9.82;;
30888;SDS011;51092;50.874;7.024;2023-02-01T02:58:37;22.92;;;8.40;;
30888;SDS011;51092;50.874;7.024;2023-02-01T02:59:57;24.75;;;8.00;;
30888;SDS011;51092;50.874;7.024;2023-02-01T03:01:20;21.63;;;8.45;;
30888;SDS011;51092;50.874;7.024;2023-02-01T03:02:39;30.00;;;7.90;;
30888;SDS011;51092;50.874;7.024;2023-02-01T03:04:01;28.67;;;8.32;;
30888;SDS011;51092;50.874;7.024;2023-02-01T03:05:09;31.38;;;8.57;;
30888;SDS011;51092;50.874;7.024;2023-02-01T03:06:13;36.00;;;8.85;;
30888;SDS011;51092;50.874;7.024;2023-02-01T03:08:56;35.75;;;7.80;;
30888;SDS011;51092;50.874;7.024;2023-02-01T03:10:02;24.95;;;7.35;;
30888;SDS011;51092;50.874;7.024;2023-02-01T03:11:11;23.92;;;8.38;;
30888;SDS011;51092;50.874;7.024;2023-02-01T03:12:16;27.33;;;8.13;;
30888;SDS011;51092;50.874;7.024;2023-02-01T03:13:38;24.35;;;8.23;;
30888;SDS011;51092;50.874;7.024;2023-02-01T03:14:46;27.55;;;8.45;;
30888;SDS011;51092;50.874;7.024;2023-02-01T03:15:54;27.50;;;7.88;;
30888;SDS011;51092;50.874;7.024;2023-02-01T03:17:02;31.48;;;8.52;;
30888;SDS011;51092;50.874;7.024;2023-02-01T03:18:12;30.65;;;7.80;;
30888;SDS011;51092;50.874;7.024;2023-02-01T03:19:19;24.05;;;7.70;;
30888;SDS011;51092;50.874;7.024;2023-02-01T03:20:25;20.27;;;6.97;;
30888;SDS011;51092;50.874;7.024;2023-02-01T03:21:34;23.67;;;7.10;;
30888;SDS011;51092;50.874;7.024;2023-02-01T03:22:39;26.10;;;7.03;;
30888;SDS011;51092;50.874;7.024;2023-02-01T03:23:43;33.47;;;7.90;;
30888;SDS011;51092;50.874;7.024;2023-02-01T03:24:48;25.73;;;7.45;;
30888;SDS011;51092;50.874;7.024;2023-02-01T03:25:58;23.52;;;7.63;;
30888;SDS011;51092;50.874;7.024;2023-02-01T03:27:04;24.38;;;6.68;;
30888;SDS011;51092;50.874;7.024;2023-02-01T03:28:09;20.15;;;6.90;;
30888;SDS011;51092;50.874;7.024;2023-02-01T03:29:17;25.55;;;6.60;;
30888;SDS011;51092;50.874;7.024;2023-02-01T03:30:26;23.90;;;6.72;;
30888;SDS011;51092;50.874;7.024;2023-02-01T03:31:31;25.73;;;8.45;;
30888;SDS011;51092;50.874;7.024;2023-02-01T03:32:33;15.18;;;6.88;;
30888;SDS011;51092;50.874;7.024;2023-02-01T03:33:51;29.63;;;8.95;;
30888;SDS011;51092;50.874;7.024;2023-02-01T03:34:55;23.20;;;7.07;;
30888;SDS011;51092;50.874;7.024;2023-02-01T03:35:59;37.83;;;8.02;;
30888;SDS011;51092;50.874;7.024;2023-02-01T03:37:08;26.83;;;7.53;;
30888;SDS011;51092;50.874;7.024;2023-02-01T03:38:14;23.77;;;7.53;;
30888;SDS011;51092;50.874;7.024;2023-02-01T03:39:24;22.45;;;7.65;;
30888;SDS011;51092;50.874;7.024;2023-02-01T03:40:33;25.48;;;7.28;;
30888;SDS011;51092;50.874;7.024;2023-02-01T03:41:40;27.67;;;7.07;;
30888;SDS011;51092;50.874;7.024;2023-02-01T03:42:43;24.30;;;7.80;;
30888;SDS011;51092;50.874;7.024;2023-02-01T03:43:51;20.42;;;6.50;;
30888;SDS011;51092;50.874;7.024;2023-02-01T03:44:57;25.67;;;6.57;;
30888;SDS011;51092;50.874;7.024;2023-02-01T03:46:06;27.55;;;7.35;;
30888;SDS011;51092;50.874;7.024;2023-02-01T03:47:13;25.27;;;6.57;;
30888;SDS011;51092;50.874;7.024;2023-02-01T03:48:20;20.50;;;6.90;;
30888;SDS011;51092;50.874;7.024;2023-02-01T03:49:26;20.02;;;5.78;;
30888;SDS011;51092;50.874;7.024;2023-02-01T03:50:31;28.48;;;7.65;;
30888;SDS011;51092;50.874;7.024;2023-02-01T03:51:37;18.95;;;6.50;;
30888;SDS011;51092;50.874;7.024;2023-02-01T03:52:42;20.40;;;6.60;;
30888;SDS011;51092;50.874;7.024;2023-02-01T03:53:45;27.63;;;6.35;;
30888;SDS011;51092;50.874;7.024;2023-02-01T03:54:49;24.30;;;6.82;;
30888;SDS011;51092;50.874;7.024;2023-02-01T03:55:52;22.48;;;7.22;;
30888;SDS011;51092;50.874;7.024;2023-02-01T03:56:56;21.23;;;6.20;;
30888;SDS011;51092;50.874;7.024;2023-02-01T03:58:01;18.63;;;6.65;;
30888;SDS011;51092;50.874;7.024;2023-02-01T03:59:08;19.25;;;5.25;;
30888;SDS011;51092;50.874;7.024;2023-02-01T04:00:14;33.92;;;6.43;;
30888;SDS011;51092;50.874;7.024;2023-02-01T04:01:19;22.65;;;6.70;;
30888;SDS011;51092;50.874;7.024;2023-02-01T04:02:20;20.20;;;6.53;;
30888;SDS011;51092;50.874;7.024;2023-02-01T04:03:22;25.10;;;6.25;;
30888;SDS011;51092;50.874;7.024;2023-02-01T04:04:24;20.73;;;5.53;;
30888;SDS011;51092;50.874;7.024;2023-02-01T04:05:26;24.95;;;6.18;;
30888;SDS011;51092;50.874;7.024;2023-02-01T04:06:29;31.17;;;7.18;;
30888;SDS011;51092;50.874;7.024;2023-02-01T04:07:32;28.88;;;6.00;;
30888;SDS011;51092;50.874;7.024;2023-02-01T04:08:33;20.38;;;6.15;;
30888;SDS011;51092;50.874;7.024;2023-02-01T04:09:39;28.33;;;6.55;;
30888;SDS011;51092;50.874;7.024;2023-02-01T04:10:40;31.90;;;6.45;;
30888;SDS011;51092;50.874;7.024;2023-02-01T04:11:43;24.67;;;6.85;;
30888;SDS011;51092;50.874;7.024;2023-02-01T04:12:44;22.08;;;5.78;;
30888;SDS011;51092;50.874;7.024;2023-02-01T04:13:47;28.30;;;6.00;;
30888;SDS011;51092;50.874;7.024;2023-02-01T04:14:48;29.45;;;6.55;;
30888;SDS011;51092;50.874;7.024;2023-02-01T04:15:51;22.25;;;6.53;;
30888;SDS011;51092;50.874;7.024;2023-02-01T04:16:52;21.17;;;5.80;;
30888;SDS011;51092;50.874;7.024;2023-02-01T04:17:54;24.92;;;6.45;;
30888;SDS011;51092;50.874;7.024;2023-02-01T04:18:55;24.25;;;5.78;;
30888;SDS011;51092;50.874;7.024;2023-02-01T04:19:57;21.95;;;6.32;;
30888;SDS011;51092;50.874;7.024;2023-02-01T04:20:58;26.80;;;5.30;;
30888;SDS011;51092;50.874;7.024;2023-02-01T04:22:03;24.70;;;5.85;;
30888;SDS011;51092;50.874;7.024;2023-02-01T04:23:04;20.77;;;6.13;;
30888;SDS011;51092;50.874;7.024;2023-02-01T04:24:07;20.48;;;6.22;;
30888;SDS011;51092;50.874;7.024;2023-02-01T04:25:09;26.83;;;7.18;;
30888;SDS011;51092;50.874;7.024;2023-02-01T04:26:11;27.80;;;6.40;;
30888;SDS011;51092;50.874;7.024;2023-02-01T04:27:13;20.88;;;6.63;;
30888;SDS011;51092;50.874;7.024;2023-02-01T04:28:15;16.02;;;5.45;;
30888;SDS011;51092;50.874;7.024;2023-02-01T04:29:17;25.60;;;6.35;;
30888;SDS011;51092;50.874;7.024;2023-02-01T04:30:19;24.52;;;5.63;;
30888;SDS011;51092;50.874;7.024;2023-02-01T04:31:21;16.60;;;6.18;;
30888;SDS011;51092;50.874;7.024;2023-02-01T04:32:26;25.40;;;5.65;;
30888;SDS011;51092;50.874;7.024;2023-02-01T04:33:27;21.15;;;6.75;;
30888;SDS011;51092;50.874;7.024;2023-02-01T04:34:29;25.58;;;6.30;;
30888;SDS011;51092;50.874;7.024;2023-02-01T04:35:31;23.30;;;6.57;;
30888;SDS011;51092;50.874;7.024;2023-02-01T04:36:34;23.02;;;5.82;;
30888;SDS011;51092;50.874;7.024;2023-02-01T04:37:38;20.27;;;5.82;;
30888;SDS011;51092;50.874;7.024;2023-02-01T04:38:39;25.10;;;5.75;;
30888;SDS011;51092;50.874;7.024;2023-02-01T04:39:41;25.00;;;6.55;;
30888;SDS011;51092;50.874;7.024;2023-02-01T04:40:43;34.90;;;7.00;;
30888;SDS011;51092;50.874;7.024;2023-02-01T04:41:48;20.48;;;6.05;;
30888;SDS011;51092;50.874;7.024;2023-02-01T04:42:49;28.55;;;6.30;;
30888;SDS011;51092;50.874;7.024;2023-02-01T04:43:52;23.75;;;7.68;;
30888;SDS011;51092;50.874;7.024;2023-02-01T04:44:53;24.08;;;6.03;;
30888;SDS011;51092;50.874;7.024;2023-02-01T04:45:55;25.17;;;6.80;;
30888;SDS011;51092;50.874;7.024;2023-02-01T04:46:57;29.58;;;7.40;;
30888;SDS011;51092;50.874;7.024;2023-02-01T04:48:00;19.67;;;6.45;;
30888;SDS011;51092;50.874;7.024;2023-02-01T04:49:01;22.70;;;5.85;;
30888;SDS011;51092;50.874;7.024;2023-02-01T04:50:04;27.75;;;6.93;;
30888;SDS011;51092;50.874;7.024;2023-02-01T04:51:08;21.92;;;7.32;;
30888;SDS011;51092;50.874;7.024;2023-02-01T04:52:11;32.40;;;6.55;;
30888;SDS011;51092;50.874;7.024;2023-02-01T04:53:14;16.85;;;6.05;;
30888;SDS011;51092;50.874;7.024;2023-02-01T04:54:17;19.98;;;6.32;;
30888;SDS011;51092;50.874;7.024;2023-02-01T04:55:18;29.92;;;7.50;;
30888;SDS011;51092;50.874;7.024;2023-02-01T04:56:21;19.35;;;6.38;;
30888;SDS011;51092;50.874;7.024;2023-02-01T04:57:23;23.88;;;6.20;;
30888;SDS011;51092;50.874;7.024;2023-02-01T04:58:25;21.40;;;6.43;;
30888;SDS011;51092;50.874;7.024;2023-02-01T04:59:27;31.50;;;7.18;;
30888;SDS011;51092;50.874;7.024;2023-02-01T05:00:29;24.13;;;6.78;;
30888;SDS011;51092;50.874;7.024;2023-02-01T05:01:31;28.25;;;7.15;;
30888;SDS011;51092;50.874;7.024;2023-02-01T05:02:34;21.45;;;5.88;;
30888;SDS011;51092;50.874;7.024;2023-02-01T05:03:36;28.52;;;7.43;;
30888;SDS011;51092;50.874;7.024;2023-02-01T05:04:38;26.23;;;6.22;;
30888;SDS011;51092;50.874;7.024;2023-02-01T05:05:39;23.10;;;7.70;;
30888;SDS011;51092;50.874;7.024;2023-02-01T05:06:44;21.63;;;6.40;;
30888;SDS011;51092;50.874;7.024;2023-02-01T05:07:46;27.13;;;8.50;;
30888;SDS011;51092;50.874;7.024;2023-02-01T05:08:49;23.48;;;6.43;;
30888;SDS011;51092;50.874;7.024;2023-02-01T05:09:51;26.88;;;7.13;;
30888;SDS011;51092;50.874;7.024;2023-02-01T05:10:53;23.90;;;6.93;;
30888;SDS011;51092;50.874;7.024;2023-02-01T05:11:55;26.75;;;5.18;;
30888;SDS011;51092;50.874;7.024;2023-02-01T05:13:15;26.50;;;7.53;;
30888;SDS011;51092;50.874;7.024;2023-02-01T05:14:35;23.13;;;5.57;;
30888;SDS011;51092;50.874;7.024;2023-02-01T05:15:37;29.05;;;6.65;;
30888;SDS011;51092;50.874;7.024;2023-02-01T05:16:41;26.05;;;7.05;;
30888;SDS011;51092;50.874;7.024;2023-02-01T05:17:43;29.63;;;8.32;;
30888;SDS011;51092;50.874;7.024;2023-02-01T05:18:45;23.35;;;6.68;;
30888;SDS011;51092;50.874;7.024;2023-02-01T05:19:47;26.58;;;5.93;;
30888;SDS011;51092;50.874;7.024;2023-02-01T05:20:49;25.40;;;6.07;;
30888;SDS011;51092;50.874;7.024;2023-02-01T05:21:51;25.00;;;5.82;;
30888;SDS011;51092;50.874;7.024;2023-02-01T05:22:53;24.10;;;6.75;;
30888;SDS011;51092;50.874;7.024;2023-02-01T05:23:57;36.22;;;7.25;;
30888;SDS011;51092;50.874;7.024;2023-02-01T05:25:10;25.33;;;5.90;;
30888;SDS011;51092;50.874;7.024;2023-02-01T05:26:12;29.13;;;6.35;;
30888;SDS011;51092;50.874;7.024;2023-02-01T05:27:21;25.85;;;4.72;;
30888;SDS011;51092;50.874;7.024;2023-02-01T05:28:24;17.63;;;5.18;;
30888;SDS011;51092;50.874;7.024;2023-02-01T05:29:25;24.45;;;5.43;;
30888;SDS011;51092;50.874;7.024;2023-02-01T05:30:28;22.33;;;6.63;;
30888;SDS011;51092;50.874;7.024;2023-02-01T05:31:30;21.98;;;6.78;;
30888;SDS011;51092;50.874;7.024;2023-02-01T05:32:32;28.15;;;5.88;;
30888;SDS011;51092;50.874;7.024;2023-02-01T05:33:34;31.23;;;6.30;;
30888;SDS011;51092;50.874;7.024;2023-02-01T05:34:36;22.75;;;6.45;;
30888;SDS011;51092;50.874;7.024;2023-02-01T05:35:37;26.58;;;5.50;;
30888;SDS011;51092;50.874;7.024;2023-02-01T05:36:41;28.40;;;5.57;;
30888;SDS011;51092;50.874;7.024;2023-02-01T05:37:42;21.90;;;4.57;;
30888;SDS011;51092;50.874;7.024;2023-02-01T05:38:45;20.38;;;4.47;;
30888;SDS011;51092;50.874;7.024;2023-02-01T05:39:48;20.25;;;6.53;;
30888;SDS011;51092;50.874;7.024;2023-02-01T05:40:51;24.95;;;6.10;;
30888;SDS011;51092;50.874;7.024;2023-02-01T05:41:53;19.85;;;6.38;;
30888;SDS011;51092;50.874;7.024;2023-02-01T05:42:55;23.45;;;6.25;;
30888;SDS011;51092;50.874;7.024;2023-02-01T05:43:57;22.75;;;4.80;;
30888;SDS011;51092;50.874;7.024;2023-02-01T05:44:59;29.98;;;6.28;;
30888;SDS011;51092;50.874;7.024;2023-02-01T05:46:01;20.92;;;4.72;;
30888;SDS011;51092;50.874;7.024;2023-02-01T05:47:03;25.73;;;5.35;;
30888;SDS011;51092;50.874;7.024;2023-02-01T05:48:05;21.58;;;5.40;;
30888;SDS011;51092;50.874;7.024;2023-02-01T05:49:08;20.52;;;5.75;;
30888;SDS011;51092;50.874;7.024;2023-02-01T05:50:09;26.80;;;4.97;;
30888;SDS011;51092;50.874;7.024;2023-02-01T05:51:12;31.38;;;6.53;;
30888;SDS011;51092;50.874;7.024;2023-02-01T05:52:14;14.23;;;3.80;;
30888;SDS011;51092;50.874;7.024;2023-02-01T05:53:20;16.60;;;3.92;;
30888;SDS011;51092;50.874;7.024;2023-02-01T05:54:21;29.52;;;5.47;;
30888;SDS011;51092;50.874;7.024;2023-02-01T05:55:25;18.00;;;4.22;;
30888;SDS011;51092;50.874;7.024;2023-02-01T05:56:26;22.55;;;4.63;;
30888;SDS011;51092;50.874;7.024;2023-02-01T05:57:31;21.42;;;4.80;;
30888;SDS011;51092;50.874;7.024;2023-02-01T05:58:33;22.38;;;4.68;;
30888;SDS011;51092;50.874;7.024;2023-02-01T05:59:36;28.02;;;4.97;;
30888;SDS011;51092;50.874;7.024;2023-02-01T06:00:41;25.10;;;4.88;;
30888;SDS011;51092;50.874;7.024;2023-02-01T06:01:44;23.38;;;4.97;;
30888;SDS011;51092;50.874;7.024;2023-02-01T06:02:45;19.02;;;5.30;;
30888;SDS011;51092;50.874;7.024;2023-02-01T06:03:48;27.33;;;5.10;;
30888;SDS011;51092;50.874;7.024;2023-02-01T06:04:49;17.63;;;5.15;;
30888;SDS011;51092;50.874;7.024;2023-02-01T06:05:52;21.27;;;4.50;;
30888;SDS011;51092;50.874;7.024;2023-02-01T06:06:53;25.92;;;5.43;;
30888;SDS011;51092;50.874;7.024;2023-02-01T06:07:56;22.48;;;4.20;;
30888;SDS011;51092;50.874;7.024;2023-02-01T06:08:57;19.00;;;4.15;;
30888;SDS011;51092;50.874;7.024;2023-02-01T06:10:00;20.55;;;5.15;;
30888;SDS011;51092;50.874;7.024;2023-02-01T06:11:04;21.42;;;3.72;;
30888;SDS011;51092;50.874;7.024;2023-02-01T06:12:07;27.15;;;5.65;;
30888;SDS011;51092;50.874;7.024;2023-02-01T06:13:09;28.15;;;6.28;;
30888;SDS011;51092;50.874;7.024;2023-02-01T06:14:11;21.42;;;4.78;;
30888;SDS011;51092;50.874;7.024;2023-02-01T06:15:14;23.17;;;5.10;;
30888;SDS011;51092;50.874;7.024;2023-02-01T06:16:16;26.60;;;4.68;;
30888;SDS011;51092;50.874;7.024;2023-02-01T06:17:18;20.02;;;5.78;;
30888;SDS011;51092;50.874;7.024;2023-02-01T06:18:19;18.52;;;4.15;;
30888;SDS011;51092;50.874;7.024;2023-02-01T06:19:21;26.77;;;4.80;;
30888;SDS011;51092;50.874;7.024;2023-02-01T06:20:22;22.27;;;5.85;;
30888;SDS011;51092;50.874;7.024;2023-02-01T06:21:25;21.50;;;5.25;;
30888;SDS011;51092;50.874;7.024;2023-02-01T06:22:26;32.08;;;4.95;;
30888;SDS011;51092;50.874;7.024;2023-02-01T06:23:29;21.55;;;5.07;;
30888;SDS011;51092;50.874;7.024;2023-02-01T06:24:31;25.65;;;5.75;;
30888;SDS011;51092;50.874;7.024;2023-02-01T06:25:33;31.70;;;4.88;;
30888;SDS011;51092;50.874;7.024;2023-02-01T06:26:36;23.95;;;5.18;;
30888;SDS011;51092;50.874;7.024;2023-02-01T06:27:39;24.60;;;5.63;;
30888;SDS011;51092;50.874;7.024;2023-02-01T06:28:41;25.83;;;5.07;;
30888;SDS011;51092;50.874;7.024;2023-02-01T06:29:43;16.55;;;4.68;;
30888;SDS011;51092;50.874;7.024;2023-02-01T06:30:45;21.55;;;5.15;;
30888;SDS011;51092;50.874;7.024;2023-02-01T06:31:47;20.38;;;3.83;;